sensor_id;sensor_type;location;lat;lon;timestamp;P1;durP1;ratioP1;P2;durP2;ratioP2
13445;SDS011;6795;51.232;3.764;2023-08-21T00:01:33;13.48;;;5.18;;
13445;SDS011;6795;51.232;3.764;2023-08-21T00:04:47;7.43;;;4.72;;
13445;SDS011;6795;51.232;3.764;2023-08-21T00:08:16;11.43;;;5.00;;
13445;SDS011;6795;51.232;3.764;2023-08-21T00:11:41;9.30;;;4.82;;
13445;SDS011;6795;51.232;3.764;2023-08-21T00:19:00;8.98;;;4.60;;
13445;SDS011;6795;51.232;3.764;2023-08-21T00:22:01;8.77;;;4.68;;
13445;SDS011;6795;51.232;3.764;2023-08-21T00:25:06;6.82;;;5.03;;
13445;SDS011;6795;51.232;3.764;2023-08-21T00:28:17;8.50;;;5.20;;
13445;SDS011;6795;51.232;3.764;2023-08-21T00:35:34;12.27;;;5.10;;
13445;SDS011;6795;51.232;3.764;2023-08-21T00:38:53;6.40;;;5.13;;
13445;SDS011;6795;51.232;3.764;2023-08-21T00:42:05;7.25;;;5.38;;
13445;SDS011;6795;51.232;3.764;2023-08-21T00:45:23;8.63;;;5.65;;
13445;SDS011;6795;51.232;3.764;2023-08-21T00:53:04;10.52;;;5.78;;
13445;SDS011;6795;51.232;3.764;2023-08-21T00:56:23;11.27;;;5.20;;
13445;SDS011;6795;51.232;3.764;2023-08-21T00:59:32;7.47;;;5.18;;
13445;SDS011;6795;51.232;3.764;2023-08-21T01:02:59;11.02;;;5.47;;
13445;SDS011;6795;51.232;3.764;2023-08-21T01:05:53;10.68;;;5.65;;
13445;SDS011;6795;51.232;3.764;2023-08-21T01:13:18;14.25;;;5.00;;
13445;SDS011;6795;51.232;3.764;2023-08-21T01:23:40;6.97;;;4.72;;
13445;SDS011;6795;51.232;3.764;2023-08-21T01:27:17;9.68;;;4.55;;
13445;SDS011;6795;51.232;3.764;2023-08-21T01:30:37;11.35;;;4.55;;
13445;SDS011;6795;51.232;3.764;2023-08-21T01:34:19;9.18;;;4.60;;
13445;SDS011;6795;51.232;3.764;2023-08-21T01:37:33;9.98;;;4.68;;
13445;SDS011;6795;51.232;3.764;2023-08-21T01:44:43;8.68;;;3.70;;
13445;SDS011;6795;51.232;3.764;2023-08-21T01:51:41;11.40;;;4.65;;
13445;SDS011;6795;51.232;3.764;2023-08-21T01:54:42;10.25;;;4.68;;
13445;SDS011;6795;51.232;3.764;2023-08-21T02:06:06;5.75;;;4.53;;
13445;SDS011;6795;51.232;3.764;2023-08-21T02:09:29;7.65;;;4.55;;
13445;SDS011;6795;51.232;3.764;2023-08-21T02:13:04;12.25;;;5.75;;
13445;SDS011;6795;51.232;3.764;2023-08-21T02:16:28;9.05;;;5.93;;
13445;SDS011;6795;51.232;3.764;2023-08-21T02:20:00;11.40;;;5.68;;
13445;SDS011;6795;51.232;3.764;2023-08-21T02:27:15;10.50;;;6.28;;
13445;SDS011;6795;51.232;3.764;2023-08-21T02:30:26;12.15;;;6.05;;
13445;SDS011;6795;51.232;3.764;2023-08-21T02:33:35;8.52;;;5.97;;
13445;SDS011;6795;51.232;3.764;2023-08-21T02:36:56;11.90;;;6.50;;
13445;SDS011;6795;51.232;3.764;2023-08-21T02:40:18;8.40;;;6.45;;
13445;SDS011;6795;51.232;3.764;2023-08-21T02:43:23;10.70;;;5.70;;
13445;SDS011;6795;51.232;3.764;2023-08-21T02:46:42;10.20;;;6.55;;
13445;SDS011;6795;51.232;3.764;2023-08-21T02:49:46;8.87;;;6.17;;
13445;SDS011;6795;51.232;3.764;2023-08-21T03:04:25;12.88;;;7.50;;
13445;SDS011;6795;51.232;3.764;2023-08-21T03:07:40;11.82;;;6.10;;
13445;SDS011;6795;51.232;3.764;2023-08-21T03:10:54;15.38;;;7.88;;
13445;SDS011;6795;51.232;3.764;2023-08-21T03:14:06;11.27;;;6.05;;
13445;SDS011;6795;51.232;3.764;2023-08-21T03:17:33;9.70;;;6.38;;
13445;SDS011;6795;51.232;3.764;2023-08-21T03:20:48;10.85;;;7.82;;
13445;SDS011;6795;51.232;3.764;2023-08-21T03:24:08;13.60;;;8.80;;
13445;SDS011;6795;51.232;3.764;2023-08-21T03:27:09;10.10;;;7.78;;
13445;SDS011;6795;51.232;3.764;2023-08-21T03:30:37;14.07;;;7.97;;
13445;SDS011;6795;51.232;3.764;2023-08-21T03:34:16;10.95;;;7.45;;
13445;SDS011;6795;51.232;3.764;2023-08-21T03:37:28;11.13;;;7.20;;
13445;SDS011;6795;51.232;3.764;2023-08-21T03:40:37;13.30;;;8.27;;
13445;SDS011;6795;51.232;3.764;2023-08-21T03:43:48;8.95;;;7.50;;
13445;SDS011;6795;51.232;3.764;2023-08-21T03:47:21;13.10;;;7.90;;
13445;SDS011;6795;51.232;3.764;2023-08-21T03:54:19;15.43;;;8.48;;
13445;SDS011;6795;51.232;3.764;2023-08-21T03:57:48;12.95;;;7.70;;
13445;SDS011;6795;51.232;3.764;2023-08-21T04:01:24;11.10;;;7.65;;
13445;SDS011;6795;51.232;3.764;2023-08-21T04:04:26;12.98;;;7.65;;
13445;SDS011;6795;51.232;3.764;2023-08-21T04:07:42;9.88;;;6.35;;
13445;SDS011;6795;51.232;3.764;2023-08-21T04:10:58;6.35;;;5.75;;
13445;SDS011;6795;51.232;3.764;2023-08-21T04:14:10;6.50;;;5.82;;
13445;SDS011;6795;51.232;3.764;2023-08-21T04:17:26;11.60;;;6.68;;
13445;SDS011;6795;51.232;3.764;2023-08-21T04:20:40;12.18;;;6.70;;
13445;SDS011;6795;51.232;3.764;2023-08-21T04:24:17;8.88;;;6.80;;
13445;SDS011;6795;51.232;3.764;2023-08-21T04:27:38;10.25;;;6.85;;
13445;SDS011;6795;51.232;3.764;2023-08-21T04:31:03;14.68;;;8.02;;
13445;SDS011;6795;51.232;3.764;2023-08-21T04:34:29;15.60;;;7.55;;
13445;SDS011;6795;51.232;3.764;2023-08-21T04:38:06;15.18;;;8.43;;
13445;SDS011;6795;51.232;3.764;2023-08-21T04:41:27;10.48;;;7.07;;
13445;SDS011;6795;51.232;3.764;2023-08-21T04:44:54;11.73;;;8.23;;
13445;SDS011;6795;51.232;3.764;2023-08-21T04:48:19;13.98;;;7.90;;
13445;SDS011;6795;51.232;3.764;2023-08-21T04:51:40;16.23;;;8.80;;
13445;SDS011;6795;51.232;3.764;2023-08-21T04:55:05;15.27;;;9.20;;
13445;SDS011;6795;51.232;3.764;2023-08-21T05:07:10;12.60;;;7.50;;
13445;SDS011;6795;51.232;3.764;2023-08-21T05:10:37;15.75;;;7.75;;
13445;SDS011;6795;51.232;3.764;2023-08-21T05:13:51;15.63;;;7.75;;
13445;SDS011;6795;51.232;3.764;2023-08-21T05:16:55;15.13;;;8.50;;
13445;SDS011;6795;51.232;3.764;2023-08-21T05:20:01;15.90;;;8.02;;
13445;SDS011;6795;51.232;3.764;2023-08-21T05:27:19;18.05;;;8.65;;
13445;SDS011;6795;51.232;3.764;2023-08-21T05:30:35;12.50;;;8.98;;
13445;SDS011;6795;51.232;3.764;2023-08-21T05:34:11;15.57;;;10.25;;
13445;SDS011;6795;51.232;3.764;2023-08-21T05:37:11;13.40;;;9.65;;
13445;SDS011;6795;51.232;3.764;2023-08-21T05:40:33;15.95;;;10.05;;
13445;SDS011;6795;51.232;3.764;2023-08-21T05:43:52;16.10;;;10.32;;
13445;SDS011;6795;51.232;3.764;2023-08-21T05:47:13;22.45;;;11.32;;
13445;SDS011;6795;51.232;3.764;2023-08-21T05:50:39;20.95;;;11.40;;
13445;SDS011;6795;51.232;3.764;2023-08-21T05:54:09;21.95;;;11.85;;
13445;SDS011;6795;51.232;3.764;2023-08-21T05:57:24;22.02;;;12.55;;
13445;SDS011;6795;51.232;3.764;2023-08-21T06:01:07;28.02;;;14.07;;
13445;SDS011;6795;51.232;3.764;2023-08-21T06:05:02;27.13;;;13.88;;
13445;SDS011;6795;51.232;3.764;2023-08-21T06:08:43;24.63;;;12.35;;
13445;SDS011;6795;51.232;3.764;2023-08-21T06:11:59;21.50;;;12.32;;
13445;SDS011;6795;51.232;3.764;2023-08-21T06:19:01;23.25;;;11.98;;
13445;SDS011;6795;51.232;3.764;2023-08-21T06:22:26;18.38;;;10.57;;
13445;SDS011;6795;51.232;3.764;2023-08-21T06:25:57;17.25;;;9.15;;
13445;SDS011;6795;51.232;3.764;2023-08-21T06:29:02;22.42;;;8.77;;
13445;SDS011;6795;51.232;3.764;2023-08-21T06:32:26;20.33;;;8.82;;
13445;SDS011;6795;51.232;3.764;2023-08-21T06:35:44;16.55;;;7.30;;
13445;SDS011;6795;51.232;3.764;2023-08-21T06:38:51;18.67;;;7.72;;
13445;SDS011;6795;51.232;3.764;2023-08-21T06:42:15;15.38;;;7.22;;
13445;SDS011;6795;51.232;3.764;2023-08-21T06:45:25;9.93;;;6.53;;
13445;SDS011;6795;51.232;3.764;2023-08-21T06:52:20;12.15;;;6.13;;
13445;SDS011;6795;51.232;3.764;2023-08-21T06:55:18;11.77;;;6.07;;
13445;SDS011;6795;51.232;3.764;2023-08-21T07:00:29;18.17;;;6.90;;
13445;SDS011;6795;51.232;3.764;2023-08-21T07:01:55;14.52;;;6.55;;
13445;SDS011;6795;51.232;3.764;2023-08-21T07:09:17;13.13;;;6.20;;
13445;SDS011;6795;51.232;3.764;2023-08-21T07:12:38;9.68;;;5.53;;
13445;SDS011;6795;51.232;3.764;2023-08-21T07:16:16;13.85;;;6.03;;
13445;SDS011;6795;51.232;3.764;2023-08-21T07:19:54;12.77;;;5.75;;
13445;SDS011;6795;51.232;3.764;2023-08-21T07:23:27;8.35;;;4.63;;
13445;SDS011;6795;51.232;3.764;2023-08-21T07:27:31;11.35;;;5.35;;
13445;SDS011;6795;51.232;3.764;2023-08-21T07:30:31;10.65;;;5.20;;
13445;SDS011;6795;51.232;3.764;2023-08-21T07:34:08;10.18;;;5.22;;
13445;SDS011;6795;51.232;3.764;2023-08-21T07:37:33;13.13;;;5.50;;
13445;SDS011;6795;51.232;3.764;2023-08-21T07:41:22;12.07;;;5.65;;
13445;SDS011;6795;51.232;3.764;2023-08-21T07:44:55;15.10;;;6.40;;
13445;SDS011;6795;51.232;3.764;2023-08-21T07:48:10;10.85;;;5.75;;
13445;SDS011;6795;51.232;3.764;2023-08-21T07:51:11;13.38;;;6.10;;
13445;SDS011;6795;51.232;3.764;2023-08-21T07:54:33;14.13;;;5.78;;
13445;SDS011;6795;51.232;3.764;2023-08-21T07:57:57;15.23;;;5.30;;
13445;SDS011;6795;51.232;3.764;2023-08-21T08:01:35;14.85;;;5.05;;
13445;SDS011;6795;51.232;3.764;2023-08-21T08:05:03;13.40;;;5.82;;
13445;SDS011;6795;51.232;3.764;2023-08-21T08:08:53;12.38;;;4.95;;
13445;SDS011;6795;51.232;3.764;2023-08-21T08:13:06;8.88;;;4.53;;
13445;SDS011;6795;51.232;3.764;2023-08-21T08:16:06;12.05;;;4.75;;
13445;SDS011;6795;51.232;3.764;2023-08-21T08:19:48;8.75;;;4.65;;
13445;SDS011;6795;51.232;3.764;2023-08-21T08:23:56;6.88;;;3.55;;
13445;SDS011;6795;51.232;3.764;2023-08-21T08:26:47;12.20;;;3.92;;
13445;SDS011;6795;51.232;3.764;2023-08-21T08:30:37;8.95;;;4.30;;
13445;SDS011;6795;51.232;3.764;2023-08-21T08:34:05;10.90;;;3.88;;
13445;SDS011;6795;51.232;3.764;2023-08-21T08:37:24;7.85;;;3.47;;
13445;SDS011;6795;51.232;3.764;2023-08-21T08:41:12;9.55;;;4.25;;
13445;SDS011;6795;51.232;3.764;2023-08-21T08:44:30;10.45;;;3.28;;
13445;SDS011;6795;51.232;3.764;2023-08-21T08:48:01;10.73;;;3.95;;
13445;SDS011;6795;51.232;3.764;2023-08-21T08:51:19;9.23;;;5.03;;
13445;SDS011;6795;51.232;3.764;2023-08-21T08:54:44;5.82;;;3.35;;
13445;SDS011;6795;51.232;3.764;2023-08-21T08:58:28;11.70;;;4.68;;
13445;SDS011;6795;51.232;3.764;2023-08-21T09:02:15;6.95;;;3.45;;
13445;SDS011;6795;51.232;3.764;2023-08-21T09:09:45;8.40;;;3.13;;
13445;SDS011;6795;51.232;3.764;2023-08-21T09:13:28;6.30;;;3.08;;
13445;SDS011;6795;51.232;3.764;2023-08-21T09:16:24;8.82;;;2.92;;
13445;SDS011;6795;51.232;3.764;2023-08-21T09:19:56;8.32;;;2.63;;
13445;SDS011;6795;51.232;3.764;2023-08-21T09:27:10;7.20;;;2.40;;
13445;SDS011;6795;51.232;3.764;2023-08-21T09:30:55;5.03;;;1.65;;
13445;SDS011;6795;51.232;3.764;2023-08-21T09:34:17;7.40;;;3.40;;
13445;SDS011;6795;51.232;3.764;2023-08-21T09:37:39;6.05;;;1.70;;
13445;SDS011;6795;51.232;3.764;2023-08-21T09:41:16;5.18;;;1.83;;
13445;SDS011;6795;51.232;3.764;2023-08-21T09:44:52;6.70;;;2.22;;
13445;SDS011;6795;51.232;3.764;2023-08-21T09:48:08;4.80;;;1.70;;
13445;SDS011;6795;51.232;3.764;2023-08-21T09:51:15;5.70;;;1.98;;
13445;SDS011;6795;51.232;3.764;2023-08-21T09:55:08;6.43;;;2.40;;
13445;SDS011;6795;51.232;3.764;2023-08-21T09:58:12;9.48;;;1.83;;
13445;SDS011;6795;51.232;3.764;2023-08-21T10:13:46;6.65;;;1.38;;
13445;SDS011;6795;51.232;3.764;2023-08-21T10:20:14;4.72;;;1.25;;
13445;SDS011;6795;51.232;3.764;2023-08-21T10:23:54;4.80;;;1.35;;
13445;SDS011;6795;51.232;3.764;2023-08-21T10:27:25;3.22;;;0.57;;
13445;SDS011;6795;51.232;3.764;2023-08-21T10:34:25;4.70;;;0.70;;
13445;SDS011;6795;51.232;3.764;2023-08-21T10:38:11;6.43;;;1.52;;
13445;SDS011;6795;51.232;3.764;2023-08-21T10:41:11;4.22;;;1.13;;
13445;SDS011;6795;51.232;3.764;2023-08-21T10:44:52;3.92;;;1.13;;
13445;SDS011;6795;51.232;3.764;2023-08-21T10:52:16;4.40;;;1.00;;
13445;SDS011;6795;51.232;3.764;2023-08-21T10:55:59;2.80;;;0.82;;
13445;SDS011;6795;51.232;3.764;2023-08-21T11:03:01;2.38;;;0.40;;
13445;SDS011;6795;51.232;3.764;2023-08-21T11:06:06;0.60;;;0.40;;
13445;SDS011;6795;51.232;3.764;2023-08-21T11:09:45;3.30;;;0.75;;
13445;SDS011;6795;51.232;3.764;2023-08-21T11:13:31;3.60;;;0.70;;
13445;SDS011;6795;51.232;3.764;2023-08-21T11:17:21;4.50;;;0.55;;
13445;SDS011;6795;51.232;3.764;2023-08-21T11:21:02;4.88;;;0.47;;
13445;SDS011;6795;51.232;3.764;2023-08-21T11:24:33;4.22;;;0.90;;
13445;SDS011;6795;51.232;3.764;2023-08-21T11:28:02;3.35;;;0.65;;
13445;SDS011;6795;51.232;3.764;2023-08-21T11:31:24;4.55;;;0.80;;
13445;SDS011;6795;51.232;3.764;2023-08-21T11:34:33;3.53;;;1.10;;
13445;SDS011;6795;51.232;3.764;2023-08-21T11:37:55;6.28;;;0.82;;
13445;SDS011;6795;51.232;3.764;2023-08-21T11:41:24;3.90;;;0.95;;
13445;SDS011;6795;51.232;3.764;2023-08-21T11:45:15;3.28;;;0.88;;
13445;SDS011;6795;51.232;3.764;2023-08-21T11:48:47;5.18;;;0.70;;
13445;SDS011;6795;51.232;3.764;2023-08-21T11:51:58;3.88;;;0.88;;
13445;SDS011;6795;51.232;3.764;2023-08-21T11:55:19;3.25;;;0.77;;
13445;SDS011;6795;51.232;3.764;2023-08-21T12:02:16;2.88;;;0.80;;
13445;SDS011;6795;51.232;3.764;2023-08-21T12:05:56;2.95;;;1.10;;
13445;SDS011;6795;51.232;3.764;2023-08-21T12:09:14;3.00;;;0.82;;
13445;SDS011;6795;51.232;3.764;2023-08-21T12:12:31;3.72;;;0.82;;
13445;SDS011;6795;51.232;3.764;2023-08-21T12:15:43;4.05;;;0.88;;
13445;SDS011;6795;51.232;3.764;2023-08-21T12:19:11;4.00;;;0.80;;
13445;SDS011;6795;51.232;3.764;2023-08-21T12:22:25;6.32;;;1.10;;
13445;SDS011;6795;51.232;3.764;2023-08-21T12:25:29;2.30;;;0.50;;
13445;SDS011;6795;51.232;3.764;2023-08-21T12:28:44;5.07;;;1.33;;
13445;SDS011;6795;51.232;3.764;2023-08-21T12:32:21;2.85;;;0.80;;
13445;SDS011;6795;51.232;3.764;2023-08-21T12:35:53;3.22;;;0.77;;
13445;SDS011;6795;51.232;3.764;2023-08-21T12:39:21;2.65;;;0.95;;
13445;SDS011;6795;51.232;3.764;2023-08-21T12:42:34;3.63;;;0.60;;
13445;SDS011;6795;51.232;3.764;2023-08-21T12:45:38;6.75;;;0.80;;
13445;SDS011;6795;51.232;3.764;2023-08-21T12:49:16;2.03;;;0.68;;
13445;SDS011;6795;51.232;3.764;2023-08-21T12:52:45;3.58;;;0.60;;
13445;SDS011;6795;51.232;3.764;2023-08-21T12:56:03;4.00;;;0.60;;
13445;SDS011;6795;51.232;3.764;2023-08-21T12:59:55;3.28;;;0.85;;
13445;SDS011;6795;51.232;3.764;2023-08-21T13:03:07;3.80;;;0.75;;
13445;SDS011;6795;51.232;3.764;2023-08-21T13:06:51;5.63;;;0.80;;
13445;SDS011;6795;51.232;3.764;2023-08-21T13:10:24;2.53;;;0.90;;
13445;SDS011;6795;51.232;3.764;2023-08-21T13:17:22;2.65;;;1.10;;
13445;SDS011;6795;51.232;3.764;2023-08-21T13:20:31;4.53;;;1.20;;
13445;SDS011;6795;51.232;3.764;2023-08-21T13:23:34;4.38;;;1.45;;
13445;SDS011;6795;51.232;3.764;2023-08-21T13:26:56;3.67;;;2.22;;
13445;SDS011;6795;51.232;3.764;2023-08-21T13:30:07;5.78;;;3.13;;
13445;SDS011;6795;51.232;3.764;2023-08-21T13:33:15;5.97;;;3.42;;
13445;SDS011;6795;51.232;3.764;2023-08-21T13:36:18;6.25;;;3.45;;
13445;SDS011;6795;51.232;3.764;2023-08-21T13:43:43;8.50;;;4.13;;
13445;SDS011;6795;51.232;3.764;2023-08-21T13:47:04;5.97;;;3.92;;
13445;SDS011;6795;51.232;3.764;2023-08-21T13:50:44;10.50;;;4.72;;
13445;SDS011;6795;51.232;3.764;2023-08-21T13:54:12;11.55;;;4.72;;
13445;SDS011;6795;51.232;3.764;2023-08-21T13:57:43;8.02;;;4.45;;
13445;SDS011;6795;51.232;3.764;2023-08-21T14:01:19;10.95;;;5.57;;
13445;SDS011;6795;51.232;3.764;2023-08-21T14:04:43;7.07;;;4.82;;
13445;SDS011;6795;51.232;3.764;2023-08-21T14:08:01;7.40;;;4.88;;
13445;SDS011;6795;51.232;3.764;2023-08-21T14:11:36;10.13;;;5.50;;
13445;SDS011;6795;51.232;3.764;2023-08-21T14:15:09;8.48;;;6.03;;
13445;SDS011;6795;51.232;3.764;2023-08-21T14:18:22;12.18;;;5.22;;
13445;SDS011;6795;51.232;3.764;2023-08-21T14:21:41;8.30;;;6.32;;
13445;SDS011;6795;51.232;3.764;2023-08-21T14:25:03;11.15;;;6.43;;
13445;SDS011;6795;51.232;3.764;2023-08-21T14:28:40;10.85;;;6.72;;
13445;SDS011;6795;51.232;3.764;2023-08-21T14:32:19;10.48;;;7.65;;
13445;SDS011;6795;51.232;3.764;2023-08-21T14:36:26;9.18;;;7.22;;
13445;SDS011;6795;51.232;3.764;2023-08-21T14:39:05;8.27;;;6.20;;
13445;SDS011;6795;51.232;3.764;2023-08-21T14:42:26;17.25;;;6.75;;
13445;SDS011;6795;51.232;3.764;2023-08-21T14:45:56;10.00;;;6.57;;
13445;SDS011;6795;51.232;3.764;2023-08-21T14:49:36;11.52;;;6.57;;
13445;SDS011;6795;51.232;3.764;2023-08-21T14:52:48;9.65;;;7.00;;
13445;SDS011;6795;51.232;3.764;2023-08-21T14:56:06;12.63;;;6.35;;
13445;SDS011;6795;51.232;3.764;2023-08-21T14:59:26;10.27;;;6.30;;
13445;SDS011;6795;51.232;3.764;2023-08-21T15:02:44;8.75;;;6.88;;
13445;SDS011;6795;51.232;3.764;2023-08-21T15:09:28;7.93;;;5.45;;
13445;SDS011;6795;51.232;3.764;2023-08-21T15:13:24;10.57;;;4.60;;
13445;SDS011;6795;51.232;3.764;2023-08-21T15:16:41;10.60;;;6.00;;
13445;SDS011;6795;51.232;3.764;2023-08-21T15:19:57;7.40;;;4.90;;
13445;SDS011;6795;51.232;3.764;2023-08-21T15:23:14;13.48;;;5.68;;
13445;SDS011;6795;51.232;3.764;2023-08-21T15:26:25;8.40;;;4.40;;
13445;SDS011;6795;51.232;3.764;2023-08-21T15:30:18;7.28;;;4.72;;
13445;SDS011;6795;51.232;3.764;2023-08-21T15:37:41;7.70;;;4.28;;
13445;SDS011;6795;51.232;3.764;2023-08-21T15:48:26;5.68;;;4.72;;
13445;SDS011;6795;51.232;3.764;2023-08-21T15:51:53;7.60;;;4.72;;
13445;SDS011;6795;51.232;3.764;2023-08-21T15:55:16;6.07;;;4.40;;
13445;SDS011;6795;51.232;3.764;2023-08-21T15:58:27;7.50;;;5.80;;
13445;SDS011;6795;51.232;3.764;2023-08-21T16:01:35;11.38;;;6.35;;
13445;SDS011;6795;51.232;3.764;2023-08-21T16:08:24;8.20;;;4.93;;
13445;SDS011;6795;51.232;3.764;2023-08-21T16:12:00;6.82;;;4.38;;
13445;SDS011;6795;51.232;3.764;2023-08-21T16:15:19;8.05;;;4.40;;
13445;SDS011;6795;51.232;3.764;2023-08-21T16:18:07;6.88;;;4.40;;
13445;SDS011;6795;51.232;3.764;2023-08-21T16:28:45;7.53;;;3.95;;
13445;SDS011;6795;51.232;3.764;2023-08-21T16:32:07;13.85;;;4.40;;
13445;SDS011;6795;51.232;3.764;2023-08-21T16:35:25;6.47;;;4.15;;
13445;SDS011;6795;51.232;3.764;2023-08-21T16:38:39;9.18;;;5.22;;
13445;SDS011;6795;51.232;3.764;2023-08-21T16:45:09;5.10;;;3.50;;
13445;SDS011;6795;51.232;3.764;2023-08-21T16:48:38;4.05;;;2.55;;
13445;SDS011;6795;51.232;3.764;2023-08-21T16:52:16;4.80;;;4.05;;
13445;SDS011;6795;51.232;3.764;2023-08-21T16:55:24;9.15;;;5.60;;
13445;SDS011;6795;51.232;3.764;2023-08-21T16:58:29;7.18;;;4.40;;
13445;SDS011;6795;51.232;3.764;2023-08-21T17:00:58;8.50;;;4.72;;
13445;SDS011;6795;51.232;3.764;2023-08-21T17:03:26;7.45;;;5.13;;
13445;SDS011;6795;51.232;3.764;2023-08-21T17:05:55;9.50;;;5.50;;
13445;SDS011;6795;51.232;3.764;2023-08-21T17:09:30;7.43;;;4.30;;
13445;SDS011;6795;51.232;3.764;2023-08-21T17:12:23;6.30;;;3.45;;
13445;SDS011;6795;51.232;3.764;2023-08-21T17:15:36;6.18;;;3.28;;
13445;SDS011;6795;51.232;3.764;2023-08-21T17:19:02;5.22;;;3.20;;
13445;SDS011;6795;51.232;3.764;2023-08-21T17:22:23;9.88;;;4.53;;
13445;SDS011;6795;51.232;3.764;2023-08-21T17:27:53;10.15;;;4.00;;
13445;SDS011;6795;51.232;3.764;2023-08-21T17:29:39;6.93;;;3.70;;
13445;SDS011;6795;51.232;3.764;2023-08-21T17:32:55;10.18;;;3.90;;
13445;SDS011;6795;51.232;3.764;2023-08-21T17:36:29;7.00;;;3.08;;
13445;SDS011;6795;51.232;3.764;2023-08-21T17:39:52;7.88;;;3.60;;
13445;SDS011;6795;51.232;3.764;2023-08-21T17:43:16;9.45;;;3.72;;
13445;SDS011;6795;51.232;3.764;2023-08-21T17:50:16;8.52;;;2.85;;
13445;SDS011;6795;51.232;3.764;2023-08-21T17:53:52;8.68;;;3.28;;
13445;SDS011;6795;51.232;3.764;2023-08-21T17:57:10;6.43;;;2.90;;
13445;SDS011;6795;51.232;3.764;2023-08-21T18:00:14;8.32;;;3.83;;
13445;SDS011;6795;51.232;3.764;2023-08-21T18:03:46;5.93;;;3.72;;
13445;SDS011;6795;51.232;3.764;2023-08-21T18:07:21;6.95;;;3.30;;
13445;SDS011;6795;51.232;3.764;2023-08-21T18:10:35;7.25;;;3.67;;
13445;SDS011;6795;51.232;3.764;2023-08-21T18:13:44;10.40;;;4.38;;
13445;SDS011;6795;51.232;3.764;2023-08-21T18:17:12;9.85;;;4.15;;
13445;SDS011;6795;51.232;3.764;2023-08-21T18:21:40;9.35;;;3.67;;
13445;SDS011;6795;51.232;3.764;2023-08-21T18:27:57;10.95;;;5.00;;
13445;SDS011;6795;51.232;3.764;2023-08-21T18:31:05;12.32;;;5.03;;
13445;SDS011;6795;51.232;3.764;2023-08-21T18:34:22;10.45;;;5.18;;
13445;SDS011;6795;51.232;3.764;2023-08-21T18:37:45;7.88;;;5.45;;
13445;SDS011;6795;51.232;3.764;2023-08-21T18:41:10;12.88;;;5.13;;
13445;SDS011;6795;51.232;3.764;2023-08-21T18:44:17;10.32;;;5.25;;
13445;SDS011;6795;51.232;3.764;2023-08-21T18:47:28;8.57;;;5.95;;
13445;SDS011;6795;51.232;3.764;2023-08-21T18:51:02;10.98;;;6.00;;
13445;SDS011;6795;51.232;3.764;2023-08-21T18:54:23;13.38;;;6.40;;
13445;SDS011;6795;51.232;3.764;2023-08-21T18:57:52;10.55;;;5.65;;
13445;SDS011;6795;51.232;3.764;2023-08-21T19:01:24;9.18;;;5.32;;
13445;SDS011;6795;51.232;3.764;2023-08-21T19:08:17;9.93;;;5.60;;
13445;SDS011;6795;51.232;3.764;2023-08-21T19:11:45;11.52;;;6.70;;
13445;SDS011;6795;51.232;3.764;2023-08-21T19:14:15;8.93;;;6.65;;
13445;SDS011;6795;51.232;3.764;2023-08-21T19:16:43;11.63;;;7.20;;
13445;SDS011;6795;51.232;3.764;2023-08-21T19:19:13;12.10;;;7.65;;
13445;SDS011;6795;51.232;3.764;2023-08-21T19:21:42;13.20;;;6.65;;
13445;SDS011;6795;51.232;3.764;2023-08-21T19:24:10;16.40;;;7.88;;
13445;SDS011;6795;51.232;3.764;2023-08-21T19:26:39;16.40;;;7.78;;
13445;SDS011;6795;51.232;3.764;2023-08-21T19:29:07;12.35;;;6.55;;
13445;SDS011;6795;51.232;3.764;2023-08-21T19:31:37;14.00;;;6.43;;
13445;SDS011;6795;51.232;3.764;2023-08-21T19:34:06;11.23;;;6.10;;
13445;SDS011;6795;51.232;3.764;2023-08-21T19:36:35;12.82;;;7.13;;
13445;SDS011;6795;51.232;3.764;2023-08-21T19:39:04;11.88;;;6.70;;
13445;SDS011;6795;51.232;3.764;2023-08-21T19:41:33;14.18;;;7.72;;
13445;SDS011;6795;51.232;3.764;2023-08-21T19:44:01;17.33;;;7.47;;
13445;SDS011;6795;51.232;3.764;2023-08-21T19:46:30;11.20;;;7.57;;
13445;SDS011;6795;51.232;3.764;2023-08-21T19:49:26;13.10;;;7.57;;
13445;SDS011;6795;51.232;3.764;2023-08-21T19:52:01;13.23;;;8.02;;
13445;SDS011;6795;51.232;3.764;2023-08-21T19:55:33;13.40;;;8.38;;
13445;SDS011;6795;51.232;3.764;2023-08-21T19:59:11;13.10;;;7.60;;
13445;SDS011;6795;51.232;3.764;2023-08-21T20:02:30;13.18;;;7.82;;
13445;SDS011;6795;51.232;3.764;2023-08-21T20:09:23;15.60;;;9.50;;
13445;SDS011;6795;51.232;3.764;2023-08-21T20:12:35;13.50;;;9.77;;
13445;SDS011;6795;51.232;3.764;2023-08-21T20:16:03;24.35;;;11.45;;
13445;SDS011;6795;51.232;3.764;2023-08-21T20:19:33;19.35;;;10.73;;
13445;SDS011;6795;51.232;3.764;2023-08-21T20:30:23;15.77;;;11.15;;
13445;SDS011;6795;51.232;3.764;2023-08-21T20:33:46;18.00;;;11.23;;
13445;SDS011;6795;51.232;3.764;2023-08-21T20:36:50;14.38;;;10.05;;
13445;SDS011;6795;51.232;3.764;2023-08-21T20:40:19;18.15;;;11.48;;
13445;SDS011;6795;51.232;3.764;2023-08-21T20:43:35;20.67;;;12.32;;
13445;SDS011;6795;51.232;3.764;2023-08-21T20:47:14;22.02;;;12.63;;
13445;SDS011;6795;51.232;3.764;2023-08-21T20:50:19;20.50;;;14.43;;
13445;SDS011;6795;51.232;3.764;2023-08-21T20:53:27;17.67;;;13.07;;
13445;SDS011;6795;51.232;3.764;2023-08-21T20:56:47;22.67;;;13.93;;
13445;SDS011;6795;51.232;3.764;2023-08-21T21:00:20;20.08;;;12.88;;
13445;SDS011;6795;51.232;3.764;2023-08-21T21:03:29;20.25;;;13.48;;
13445;SDS011;6795;51.232;3.764;2023-08-21T21:07:07;22.50;;;13.98;;
13445;SDS011;6795;51.232;3.764;2023-08-21T21:10:52;27.30;;;13.95;;
13445;SDS011;6795;51.232;3.764;2023-08-21T21:14:10;20.60;;;14.98;;
13445;SDS011;6795;51.232;3.764;2023-08-21T21:17:34;27.25;;;17.10;;
13445;SDS011;6795;51.232;3.764;2023-08-21T21:20:58;26.38;;;18.45;;
13445;SDS011;6795;51.232;3.764;2023-08-21T21:24:21;25.75;;;18.73;;
13445;SDS011;6795;51.232;3.764;2023-08-21T21:27:36;28.42;;;18.88;;
13445;SDS011;6795;51.232;3.764;2023-08-21T21:30:57;26.90;;;17.63;;
13445;SDS011;6795;51.232;3.764;2023-08-21T21:35:01;29.20;;;19.25;;
13445;SDS011;6795;51.232;3.764;2023-08-21T21:38:09;41.88;;;21.13;;
13445;SDS011;6795;51.232;3.764;2023-08-21T21:41:40;31.42;;;20.80;;
13445;SDS011;6795;51.232;3.764;2023-08-21T21:44:43;31.40;;;20.55;;
13445;SDS011;6795;51.232;3.764;2023-08-21T21:48:09;37.75;;;21.17;;
13445;SDS011;6795;51.232;3.764;2023-08-21T21:51:30;31.48;;;20.60;;
13445;SDS011;6795;51.232;3.764;2023-08-21T21:54:52;31.17;;;21.02;;
13445;SDS011;6795;51.232;3.764;2023-08-21T21:57:42;35.25;;;20.98;;
13445;SDS011;6795;51.232;3.764;2023-08-21T22:01:11;34.83;;;22.25;;
13445;SDS011;6795;51.232;3.764;2023-08-21T22:04:26;35.05;;;21.60;;
13445;SDS011;6795;51.232;3.764;2023-08-21T22:15:22;32.35;;;21.67;;
13445;SDS011;6795;51.232;3.764;2023-08-21T22:19:00;38.30;;;24.35;;
13445;SDS011;6795;51.232;3.764;2023-08-21T22:22:39;36.45;;;23.88;;
13445;SDS011;6795;51.232;3.764;2023-08-21T22:25:47;41.67;;;25.83;;
13445;SDS011;6795;51.232;3.764;2023-08-21T22:29:05;36.05;;;23.95;;
13445;SDS011;6795;51.232;3.764;2023-08-21T22:36:48;29.17;;;20.08;;
13445;SDS011;6795;51.232;3.764;2023-08-21T22:40:29;34.00;;;21.63;;
13445;SDS011;6795;51.232;3.764;2023-08-21T22:43:27;37.22;;;23.73;;
13445;SDS011;6795;51.232;3.764;2023-08-21T22:46:46;36.67;;;24.35;;
13445;SDS011;6795;51.232;3.764;2023-08-21T22:49:58;37.17;;;24.27;;
13445;SDS011;6795;51.232;3.764;2023-08-21T22:53:08;37.65;;;24.52;;
13445;SDS011;6795;51.232;3.764;2023-08-21T23:00:05;36.50;;;23.25;;
13445;SDS011;6795;51.232;3.764;2023-08-21T23:03:32;42.13;;;26.17;;
13445;SDS011;6795;51.232;3.764;2023-08-21T23:06:57;36.92;;;25.85;;
13445;SDS011;6795;51.232;3.764;2023-08-21T23:10:15;38.92;;;27.38;;
13445;SDS011;6795;51.232;3.764;2023-08-21T23:13:35;41.60;;;26.50;;
13445;SDS011;6795;51.232;3.764;2023-08-21T23:16:43;34.35;;;25.45;;
13445;SDS011;6795;51.232;3.764;2023-08-21T23:20:03;41.17;;;27.02;;
13445;SDS011;6795;51.232;3.764;2023-08-21T23:38:32;45.78;;;29.30;;